Terminal Aerodrome Forecast
Issued by NWS

Home | Current Version | Previous Version | Text Only | Print | Product List | Glossary On
Versions: 1 2 3 4 5 6 7 8 9 10 11 12 13
000
FTUS46 KPDT 050534
TAFALW
TAF
KALW 050534Z 0506/0606 22015G25KT P6SM SCT100
     FM050800 22010KT P6SM SCT100
     FM052000 25012G20KT P6SM SCT070 SCT250=

USA.gov is the U.S. government's official web portal to all federal, state and local government web resources and services.